sensor_id;sensor_type;location;lat;lon;timestamp;P1;durP1;ratioP1;P2;durP2;ratioP2
12120;SDS011;6124;59.460;17.908;2024-01-25T00:02:24;1.47;;;1.37;;
12120;SDS011;6124;59.460;17.908;2024-01-25T00:04:51;1.60;;;1.50;;
12120;SDS011;6124;59.460;17.908;2024-01-25T00:07:18;2.13;;;1.80;;
12120;SDS011;6124;59.460;17.908;2024-01-25T00:09:46;1.80;;;1.70;;
12120;SDS011;6124;59.460;17.908;2024-01-25T00:12:13;2.03;;;1.83;;
12120;SDS011;6124;59.460;17.908;2024-01-25T00:14:42;3.20;;;2.83;;
12120;SDS011;6124;59.460;17.908;2024-01-25T00:17:09;3.50;;;3.20;;
12120;SDS011;6124;59.460;17.908;2024-01-25T00:19:36;4.67;;;4.27;;
12120;SDS011;6124;59.460;17.908;2024-01-25T00:22:05;5.87;;;5.37;;
12120;SDS011;6124;59.460;17.908;2024-01-25T00:24:32;8.03;;;7.33;;
12120;SDS011;6124;59.460;17.908;2024-01-25T00:27:00;7.87;;;7.17;;
12120;SDS011;6124;59.460;17.908;2024-01-25T00:29:28;7.30;;;6.60;;
12120;SDS011;6124;59.460;17.908;2024-01-25T00:31:58;4.77;;;4.37;;
12120;SDS011;6124;59.460;17.908;2024-01-25T00:34:25;2.50;;;2.10;;
12120;SDS011;6124;59.460;17.908;2024-01-25T00:36:53;1.90;;;1.70;;
12120;SDS011;6124;59.460;17.908;2024-01-25T00:39:21;3.00;;;1.83;;
12120;SDS011;6124;59.460;17.908;2024-01-25T00:41:49;2.30;;;1.60;;
12120;SDS011;6124;59.460;17.908;2024-01-25T00:44:18;2.37;;;1.80;;
12120;SDS011;6124;59.460;17.908;2024-01-25T00:46:46;2.13;;;1.63;;
12120;SDS011;6124;59.460;17.908;2024-01-25T00:49:15;2.43;;;2.20;;
12120;SDS011;6124;59.460;17.908;2024-01-25T00:51:44;5.17;;;3.30;;
12120;SDS011;6124;59.460;17.908;2024-01-25T00:54:13;4.33;;;3.93;;
12120;SDS011;6124;59.460;17.908;2024-01-25T00:56:41;5.43;;;5.00;;
12120;SDS011;6124;59.460;17.908;2024-01-25T00:59:08;5.43;;;4.80;;
12120;SDS011;6124;59.460;17.908;2024-01-25T01:01:36;5.07;;;4.53;;
12120;SDS011;6124;59.460;17.908;2024-01-25T01:04:04;5.30;;;4.80;;
12120;SDS011;6124;59.460;17.908;2024-01-25T01:06:34;5.50;;;5.00;;
12120;SDS011;6124;59.460;17.908;2024-01-25T01:09:01;7.83;;;6.70;;
12120;SDS011;6124;59.460;17.908;2024-01-25T01:11:28;7.37;;;6.67;;
12120;SDS011;6124;59.460;17.908;2024-01-25T01:13:56;7.90;;;7.10;;
12120;SDS011;6124;59.460;17.908;2024-01-25T01:16:23;8.90;;;8.10;;
12120;SDS011;6124;59.460;17.908;2024-01-25T01:18:51;8.97;;;8.17;;
12120;SDS011;6124;59.460;17.908;2024-01-25T01:21:18;8.03;;;7.17;;
12120;SDS011;6124;59.460;17.908;2024-01-25T01:23:48;5.33;;;4.67;;
12120;SDS011;6124;59.460;17.908;2024-01-25T01:26:14;3.37;;;2.97;;
12120;SDS011;6124;59.460;17.908;2024-01-25T01:28:41;3.13;;;2.77;;
12120;SDS011;6124;59.460;17.908;2024-01-25T01:31:09;3.63;;;2.23;;
12120;SDS011;6124;59.460;17.908;2024-01-25T01:33:36;2.23;;;1.97;;
12120;SDS011;6124;59.460;17.908;2024-01-25T01:36:04;2.20;;;1.90;;
12120;SDS011;6124;59.460;17.908;2024-01-25T01:38:31;3.17;;;2.30;;
12120;SDS011;6124;59.460;17.908;2024-01-25T01:41:00;3.97;;;1.80;;
12120;SDS011;6124;59.460;17.908;2024-01-25T01:43:27;2.43;;;2.23;;
12120;SDS011;6124;59.460;17.908;2024-01-25T01:45:55;4.83;;;3.87;;
12120;SDS011;6124;59.460;17.908;2024-01-25T01:48:26;4.07;;;3.67;;
12120;SDS011;6124;59.460;17.908;2024-01-25T01:50:53;4.40;;;3.63;;
12120;SDS011;6124;59.460;17.908;2024-01-25T01:53:21;5.53;;;4.37;;
12120;SDS011;6124;59.460;17.908;2024-01-25T01:55:49;6.03;;;5.37;;
12120;SDS011;6124;59.460;17.908;2024-01-25T01:58:18;5.33;;;4.83;;
12120;SDS011;6124;59.460;17.908;2024-01-25T02:00:48;5.67;;;3.70;;
12120;SDS011;6124;59.460;17.908;2024-01-25T02:03:16;5.27;;;3.03;;
12120;SDS011;6124;59.460;17.908;2024-01-25T02:05:43;3.20;;;2.90;;
12120;SDS011;6124;59.460;17.908;2024-01-25T02:08:11;4.63;;;2.80;;
12120;SDS011;6124;59.460;17.908;2024-01-25T02:10:38;5.60;;;4.50;;
12120;SDS011;6124;59.460;17.908;2024-01-25T02:13:05;7.17;;;5.23;;
12120;SDS011;6124;59.460;17.908;2024-01-25T02:15:34;5.20;;;4.50;;
12120;SDS011;6124;59.460;17.908;2024-01-25T02:18:02;5.00;;;4.50;;
12120;SDS011;6124;59.460;17.908;2024-01-25T02:20:29;6.93;;;4.50;;
12120;SDS011;6124;59.460;17.908;2024-01-25T02:22:58;6.47;;;5.73;;
12120;SDS011;6124;59.460;17.908;2024-01-25T02:25:26;9.50;;;7.93;;
12120;SDS011;6124;59.460;17.908;2024-01-25T02:27:53;8.63;;;7.83;;
12120;SDS011;6124;59.460;17.908;2024-01-25T02:30:20;9.97;;;8.93;;
12120;SDS011;6124;59.460;17.908;2024-01-25T02:32:48;6.97;;;5.80;;
12120;SDS011;6124;59.460;17.908;2024-01-25T02:35:15;7.00;;;5.67;;
12120;SDS011;6124;59.460;17.908;2024-01-25T02:37:43;5.10;;;4.60;;
12120;SDS011;6124;59.460;17.908;2024-01-25T02:40:12;5.90;;;3.97;;
12120;SDS011;6124;59.460;17.908;2024-01-25T02:42:40;2.83;;;2.17;;
12120;SDS011;6124;59.460;17.908;2024-01-25T02:45:07;4.17;;;2.00;;
12120;SDS011;6124;59.460;17.908;2024-01-25T02:47:35;2.63;;;2.20;;
12120;SDS011;6124;59.460;17.908;2024-01-25T02:50:02;5.10;;;2.97;;
12120;SDS011;6124;59.460;17.908;2024-01-25T02:52:29;3.23;;;2.37;;
12120;SDS011;6124;59.460;17.908;2024-01-25T02:54:57;2.50;;;1.93;;
12120;SDS011;6124;59.460;17.908;2024-01-25T02:57:26;2.80;;;1.90;;
12120;SDS011;6124;59.460;17.908;2024-01-25T02:59:53;1.63;;;1.40;;
12120;SDS011;6124;59.460;17.908;2024-01-25T03:02:21;2.03;;;1.40;;
12120;SDS011;6124;59.460;17.908;2024-01-25T03:04:48;2.03;;;1.10;;
12120;SDS011;6124;59.460;17.908;2024-01-25T03:07:15;1.63;;;1.00;;
12120;SDS011;6124;59.460;17.908;2024-01-25T03:09:43;1.30;;;1.00;;
12120;SDS011;6124;59.460;17.908;2024-01-25T03:12:10;1.60;;;1.00;;
12120;SDS011;6124;59.460;17.908;2024-01-25T03:14:39;1.10;;;1.00;;
12120;SDS011;6124;59.460;17.908;2024-01-25T03:17:06;3.00;;;1.20;;
12120;SDS011;6124;59.460;17.908;2024-01-25T03:19:34;2.33;;;1.20;;
12120;SDS011;6124;59.460;17.908;2024-01-25T03:22:01;2.43;;;1.53;;
12120;SDS011;6124;59.460;17.908;2024-01-25T03:24:29;2.80;;;1.63;;
12120;SDS011;6124;59.460;17.908;2024-01-25T03:26:58;4.33;;;1.57;;
12120;SDS011;6124;59.460;17.908;2024-01-25T03:29:26;1.70;;;1.33;;
12120;SDS011;6124;59.460;17.908;2024-01-25T03:31:55;1.87;;;1.13;;
12120;SDS011;6124;59.460;17.908;2024-01-25T03:34:22;2.10;;;1.63;;
12120;SDS011;6124;59.460;17.908;2024-01-25T03:36:50;3.27;;;1.30;;
12120;SDS011;6124;59.460;17.908;2024-01-25T03:39:19;2.00;;;1.20;;
12120;SDS011;6124;59.460;17.908;2024-01-25T03:41:46;2.00;;;1.30;;
12120;SDS011;6124;59.460;17.908;2024-01-25T03:44:14;1.83;;;1.23;;
12120;SDS011;6124;59.460;17.908;2024-01-25T03:46:41;2.50;;;1.67;;
12120;SDS011;6124;59.460;17.908;2024-01-25T03:49:10;4.47;;;1.60;;
12120;SDS011;6124;59.460;17.908;2024-01-25T03:51:37;3.00;;;1.10;;
12120;SDS011;6124;59.460;17.908;2024-01-25T03:54:05;2.07;;;1.70;;
12120;SDS011;6124;59.460;17.908;2024-01-25T03:56:32;2.10;;;1.40;;
12120;SDS011;6124;59.460;17.908;2024-01-25T03:59:00;2.97;;;1.60;;
12120;SDS011;6124;59.460;17.908;2024-01-25T04:01:29;2.93;;;1.83;;
12120;SDS011;6124;59.460;17.908;2024-01-25T04:03:57;3.00;;;1.80;;
12120;SDS011;6124;59.460;17.908;2024-01-25T04:06:25;5.33;;;2.47;;
12120;SDS011;6124;59.460;17.908;2024-01-25T04:08:53;5.70;;;1.80;;
12120;SDS011;6124;59.460;17.908;2024-01-25T04:11:20;3.97;;;2.00;;
12120;SDS011;6124;59.460;17.908;2024-01-25T04:13:48;4.67;;;2.10;;
12120;SDS011;6124;59.460;17.908;2024-01-25T04:16:15;6.60;;;2.40;;
12120;SDS011;6124;59.460;17.908;2024-01-25T04:18:42;3.63;;;2.20;;
12120;SDS011;6124;59.460;17.908;2024-01-25T04:21:10;4.10;;;2.00;;
12120;SDS011;6124;59.460;17.908;2024-01-25T04:23:39;2.10;;;1.83;;
12120;SDS011;6124;59.460;17.908;2024-01-25T04:26:06;3.87;;;1.83;;
12120;SDS011;6124;59.460;17.908;2024-01-25T04:28:33;3.57;;;2.00;;
12120;SDS011;6124;59.460;17.908;2024-01-25T04:31:01;3.73;;;2.13;;
12120;SDS011;6124;59.460;17.908;2024-01-25T04:33:29;2.17;;;1.70;;
12120;SDS011;6124;59.460;17.908;2024-01-25T04:35:56;2.20;;;1.73;;
12120;SDS011;6124;59.460;17.908;2024-01-25T04:38:24;3.10;;;1.80;;
12120;SDS011;6124;59.460;17.908;2024-01-25T04:40:53;4.57;;;1.73;;
12120;SDS011;6124;59.460;17.908;2024-01-25T04:43:20;1.90;;;1.60;;
12120;SDS011;6124;59.460;17.908;2024-01-25T04:45:47;4.60;;;1.90;;
12120;SDS011;6124;59.460;17.908;2024-01-25T04:48:15;4.87;;;1.83;;
12120;SDS011;6124;59.460;17.908;2024-01-25T04:50:42;2.97;;;1.70;;
12120;SDS011;6124;59.460;17.908;2024-01-25T04:53:09;4.17;;;1.70;;
12120;SDS011;6124;59.460;17.908;2024-01-25T04:55:37;2.53;;;1.63;;
12120;SDS011;6124;59.460;17.908;2024-01-25T04:58:06;2.67;;;1.67;;
12120;SDS011;6124;59.460;17.908;2024-01-25T05:00:33;2.57;;;1.70;;
12120;SDS011;6124;59.460;17.908;2024-01-25T05:03:02;2.87;;;1.47;;
12120;SDS011;6124;59.460;17.908;2024-01-25T05:05:29;3.80;;;1.63;;
12120;SDS011;6124;59.460;17.908;2024-01-25T05:07:56;2.30;;;1.63;;
12120;SDS011;6124;59.460;17.908;2024-01-25T05:10:24;3.00;;;1.70;;
12120;SDS011;6124;59.460;17.908;2024-01-25T05:12:52;3.00;;;2.00;;
12120;SDS011;6124;59.460;17.908;2024-01-25T05:15:21;2.43;;;1.87;;
12120;SDS011;6124;59.460;17.908;2024-01-25T05:17:48;3.33;;;1.77;;
12120;SDS011;6124;59.460;17.908;2024-01-25T05:20:16;3.23;;;2.20;;
12120;SDS011;6124;59.460;17.908;2024-01-25T05:22:43;2.63;;;1.70;;
12120;SDS011;6124;59.460;17.908;2024-01-25T05:25:11;2.87;;;1.90;;
12120;SDS011;6124;59.460;17.908;2024-01-25T05:27:38;4.20;;;2.20;;
12120;SDS011;6124;59.460;17.908;2024-01-25T05:30:06;1.83;;;1.70;;
12120;SDS011;6124;59.460;17.908;2024-01-25T05:32:36;2.60;;;1.80;;
12120;SDS011;6124;59.460;17.908;2024-01-25T05:35:04;3.93;;;2.57;;
12120;SDS011;6124;59.460;17.908;2024-01-25T05:37:32;3.60;;;2.20;;
12120;SDS011;6124;59.460;17.908;2024-01-25T05:39:59;4.20;;;2.37;;
12120;SDS011;6124;59.460;17.908;2024-01-25T05:42:26;3.77;;;2.30;;
12120;SDS011;6124;59.460;17.908;2024-01-25T05:44:54;3.80;;;2.00;;
12120;SDS011;6124;59.460;17.908;2024-01-25T05:47:21;4.47;;;2.33;;
12120;SDS011;6124;59.460;17.908;2024-01-25T05:49:50;2.87;;;2.10;;
12120;SDS011;6124;59.460;17.908;2024-01-25T05:52:17;3.37;;;2.07;;
12120;SDS011;6124;59.460;17.908;2024-01-25T05:54:46;4.37;;;2.00;;
12120;SDS011;6124;59.460;17.908;2024-01-25T05:57:14;3.83;;;1.80;;
12120;SDS011;6124;59.460;17.908;2024-01-25T05:59:42;2.70;;;2.00;;
12120;SDS011;6124;59.460;17.908;2024-01-25T06:02:09;2.60;;;1.90;;
12120;SDS011;6124;59.460;17.908;2024-01-25T06:04:36;3.60;;;1.93;;
12120;SDS011;6124;59.460;17.908;2024-01-25T06:07:08;2.67;;;1.80;;
12120;SDS011;6124;59.460;17.908;2024-01-25T06:09:35;1.97;;;1.60;;
12120;SDS011;6124;59.460;17.908;2024-01-25T06:12:03;3.10;;;1.80;;
12120;SDS011;6124;59.460;17.908;2024-01-25T06:14:30;3.10;;;1.77;;
12120;SDS011;6124;59.460;17.908;2024-01-25T06:16:58;2.60;;;1.73;;
12120;SDS011;6124;59.460;17.908;2024-01-25T06:19:25;3.50;;;1.50;;
12120;SDS011;6124;59.460;17.908;2024-01-25T06:21:53;3.17;;;1.83;;
12120;SDS011;6124;59.460;17.908;2024-01-25T06:24:22;4.20;;;1.97;;
12120;SDS011;6124;59.460;17.908;2024-01-25T06:26:49;2.30;;;1.60;;
12120;SDS011;6124;59.460;17.908;2024-01-25T06:29:16;3.30;;;1.70;;
12120;SDS011;6124;59.460;17.908;2024-01-25T06:31:44;2.40;;;1.70;;
12120;SDS011;6124;59.460;17.908;2024-01-25T06:34:11;2.13;;;1.43;;
12120;SDS011;6124;59.460;17.908;2024-01-25T06:36:39;3.27;;;1.60;;
12120;SDS011;6124;59.460;17.908;2024-01-25T06:39:06;3.07;;;1.47;;
12120;SDS011;6124;59.460;17.908;2024-01-25T06:41:35;2.20;;;1.40;;
12120;SDS011;6124;59.460;17.908;2024-01-25T06:44:03;2.93;;;1.40;;
12120;SDS011;6124;59.460;17.908;2024-01-25T06:46:30;3.20;;;1.33;;
12120;SDS011;6124;59.460;17.908;2024-01-25T06:48:58;2.03;;;1.07;;
12120;SDS011;6124;59.460;17.908;2024-01-25T06:51:25;1.83;;;1.20;;
12120;SDS011;6124;59.460;17.908;2024-01-25T06:53:54;1.97;;;1.10;;
12120;SDS011;6124;59.460;17.908;2024-01-25T06:56:21;2.07;;;1.17;;
12120;SDS011;6124;59.460;17.908;2024-01-25T06:58:50;2.37;;;1.33;;
12120;SDS011;6124;59.460;17.908;2024-01-25T07:01:20;1.53;;;1.20;;
12120;SDS011;6124;59.460;17.908;2024-01-25T07:03:48;1.30;;;1.07;;
12120;SDS011;6124;59.460;17.908;2024-01-25T07:06:16;1.83;;;1.30;;
12120;SDS011;6124;59.460;17.908;2024-01-25T07:08:44;1.57;;;1.03;;
12120;SDS011;6124;59.460;17.908;2024-01-25T07:11:11;2.07;;;1.10;;
12120;SDS011;6124;59.460;17.908;2024-01-25T07:13:40;2.07;;;1.30;;
12120;SDS011;6124;59.460;17.908;2024-01-25T07:16:09;1.97;;;1.20;;
12120;SDS011;6124;59.460;17.908;2024-01-25T07:18:36;1.50;;;1.10;;
12120;SDS011;6124;59.460;17.908;2024-01-25T07:21:04;2.13;;;1.17;;
12120;SDS011;6124;59.460;17.908;2024-01-25T07:23:32;1.97;;;1.13;;
12120;SDS011;6124;59.460;17.908;2024-01-25T07:26:00;1.20;;;0.93;;
12120;SDS011;6124;59.460;17.908;2024-01-25T07:28:27;1.70;;;1.37;;
12120;SDS011;6124;59.460;17.908;2024-01-25T07:30:55;1.60;;;1.20;;
12120;SDS011;6124;59.460;17.908;2024-01-25T07:33:23;1.87;;;1.10;;
12120;SDS011;6124;59.460;17.908;2024-01-25T07:35:51;1.70;;;1.03;;
12120;SDS011;6124;59.460;17.908;2024-01-25T07:38:18;1.77;;;1.10;;
12120;SDS011;6124;59.460;17.908;2024-01-25T07:40:46;1.13;;;1.03;;
12120;SDS011;6124;59.460;17.908;2024-01-25T07:43:13;1.10;;;0.97;;
12120;SDS011;6124;59.460;17.908;2024-01-25T07:45:40;1.73;;;0.93;;
12120;SDS011;6124;59.460;17.908;2024-01-25T07:48:08;1.20;;;0.93;;
12120;SDS011;6124;59.460;17.908;2024-01-25T07:50:37;1.77;;;1.00;;
12120;SDS011;6124;59.460;17.908;2024-01-25T07:53:04;1.93;;;0.93;;
12120;SDS011;6124;59.460;17.908;2024-01-25T07:55:32;1.50;;;0.90;;
12120;SDS011;6124;59.460;17.908;2024-01-25T07:57:59;1.43;;;1.10;;
12120;SDS011;6124;59.460;17.908;2024-01-25T08:00:26;1.90;;;1.13;;
12120;SDS011;6124;59.460;17.908;2024-01-25T08:02:54;1.37;;;1.03;;
12120;SDS011;6124;59.460;17.908;2024-01-25T08:05:21;1.20;;;1.07;;
12120;SDS011;6124;59.460;17.908;2024-01-25T08:07:50;1.23;;;0.90;;
12120;SDS011;6124;59.460;17.908;2024-01-25T08:10:18;1.70;;;1.10;;
12120;SDS011;6124;59.460;17.908;2024-01-25T08:12:48;2.13;;;1.00;;
12120;SDS011;6124;59.460;17.908;2024-01-25T08:15:15;2.10;;;1.40;;
12120;SDS011;6124;59.460;17.908;2024-01-25T08:17:43;1.93;;;1.33;;
12120;SDS011;6124;59.460;17.908;2024-01-25T08:20:11;1.27;;;1.00;;
12120;SDS011;6124;59.460;17.908;2024-01-25T08:22:40;2.10;;;1.03;;
12120;SDS011;6124;59.460;17.908;2024-01-25T08:25:09;1.20;;;0.90;;
12120;SDS011;6124;59.460;17.908;2024-01-25T08:27:38;2.70;;;1.20;;
12120;SDS011;6124;59.460;17.908;2024-01-25T08:30:06;1.63;;;1.13;;
12120;SDS011;6124;59.460;17.908;2024-01-25T08:32:34;1.87;;;1.30;;
12120;SDS011;6124;59.460;17.908;2024-01-25T08:35:01;3.67;;;1.30;;
12120;SDS011;6124;59.460;17.908;2024-01-25T08:37:29;2.60;;;1.37;;
12120;SDS011;6124;59.460;17.908;2024-01-25T08:39:56;2.10;;;1.40;;
12120;SDS011;6124;59.460;17.908;2024-01-25T08:42:25;3.40;;;1.27;;
12120;SDS011;6124;59.460;17.908;2024-01-25T08:44:52;2.43;;;1.37;;
12120;SDS011;6124;59.460;17.908;2024-01-25T08:47:19;4.50;;;1.93;;
12120;SDS011;6124;59.460;17.908;2024-01-25T08:49:47;2.10;;;1.43;;
12120;SDS011;6124;59.460;17.908;2024-01-25T08:52:14;2.77;;;1.53;;
12120;SDS011;6124;59.460;17.908;2024-01-25T08:54:42;2.30;;;1.50;;
12120;SDS011;6124;59.460;17.908;2024-01-25T08:57:09;2.47;;;1.50;;
12120;SDS011;6124;59.460;17.908;2024-01-25T08:59:38;2.97;;;1.50;;
12120;SDS011;6124;59.460;17.908;2024-01-25T09:02:05;3.27;;;1.67;;
12120;SDS011;6124;59.460;17.908;2024-01-25T09:04:33;2.13;;;1.63;;
12120;SDS011;6124;59.460;17.908;2024-01-25T09:07:01;4.40;;;2.53;;
12120;SDS011;6124;59.460;17.908;2024-01-25T09:09:29;4.33;;;2.37;;
12120;SDS011;6124;59.460;17.908;2024-01-25T09:11:56;3.77;;;2.23;;
12120;SDS011;6124;59.460;17.908;2024-01-25T09:14:24;2.80;;;2.40;;
12120;SDS011;6124;59.460;17.908;2024-01-25T09:16:53;2.70;;;2.13;;
12120;SDS011;6124;59.460;17.908;2024-01-25T09:19:20;4.70;;;2.50;;
12120;SDS011;6124;59.460;17.908;2024-01-25T09:21:47;2.87;;;2.50;;
12120;SDS011;6124;59.460;17.908;2024-01-25T09:24:15;2.50;;;2.30;;
12120;SDS011;6124;59.460;17.908;2024-01-25T09:26:42;4.80;;;2.87;;
12120;SDS011;6124;59.460;17.908;2024-01-25T09:29:10;4.30;;;2.73;;
12120;SDS011;6124;59.460;17.908;2024-01-25T09:31:37;6.43;;;2.90;;
12120;SDS011;6124;59.460;17.908;2024-01-25T09:34:06;5.30;;;3.00;;
12120;SDS011;6124;59.460;17.908;2024-01-25T09:36:34;3.70;;;2.53;;
12120;SDS011;6124;59.460;17.908;2024-01-25T09:39:01;4.37;;;2.80;;
12120;SDS011;6124;59.460;17.908;2024-01-25T09:41:29;4.63;;;2.67;;
12120;SDS011;6124;59.460;17.908;2024-01-25T09:43:56;5.17;;;3.00;;
12120;SDS011;6124;59.460;17.908;2024-01-25T09:46:24;4.33;;;3.07;;
12120;SDS011;6124;59.460;17.908;2024-01-25T09:48:51;4.13;;;3.07;;
12120;SDS011;6124;59.460;17.908;2024-01-25T09:51:20;4.13;;;3.17;;
12120;SDS011;6124;59.460;17.908;2024-01-25T09:53:49;5.30;;;3.33;;
12120;SDS011;6124;59.460;17.908;2024-01-25T09:56:17;5.87;;;3.13;;
12120;SDS011;6124;59.460;17.908;2024-01-25T09:58:45;7.10;;;3.50;;
12120;SDS011;6124;59.460;17.908;2024-01-25T10:01:14;5.93;;;3.80;;
12120;SDS011;6124;59.460;17.908;2024-01-25T10:03:42;5.63;;;3.67;;
12120;SDS011;6124;59.460;17.908;2024-01-25T10:06:10;5.20;;;3.37;;
12120;SDS011;6124;59.460;17.908;2024-01-25T10:08:39;5.53;;;3.60;;
12120;SDS011;6124;59.460;17.908;2024-01-25T10:11:07;7.80;;;3.60;;
12120;SDS011;6124;59.460;17.908;2024-01-25T10:13:40;9.00;;;3.83;;
12120;SDS011;6124;59.460;17.908;2024-01-25T10:16:10;4.93;;;3.70;;
12120;SDS011;6124;59.460;17.908;2024-01-25T10:18:38;4.47;;;3.53;;
12120;SDS011;6124;59.460;17.908;2024-01-25T10:21:08;6.07;;;4.20;;
12120;SDS011;6124;59.460;17.908;2024-01-25T10:23:36;4.17;;;3.33;;
12120;SDS011;6124;59.460;17.908;2024-01-25T10:26:05;5.07;;;3.80;;
12120;SDS011;6124;59.460;17.908;2024-01-25T10:28:32;5.07;;;3.87;;
12120;SDS011;6124;59.460;17.908;2024-01-25T10:31:00;5.60;;;3.50;;
12120;SDS011;6124;59.460;17.908;2024-01-25T10:33:29;6.77;;;3.87;;
12120;SDS011;6124;59.460;17.908;2024-01-25T10:35:57;5.10;;;3.90;;
12120;SDS011;6124;59.460;17.908;2024-01-25T10:38:27;4.37;;;3.27;;
12120;SDS011;6124;59.460;17.908;2024-01-25T10:40:56;5.57;;;3.80;;
12120;SDS011;6124;59.460;17.908;2024-01-25T10:43:25;5.80;;;3.87;;
12120;SDS011;6124;59.460;17.908;2024-01-25T10:45:55;7.40;;;4.00;;
12120;SDS011;6124;59.460;17.908;2024-01-25T10:48:23;5.87;;;3.33;;
12120;SDS011;6124;59.460;17.908;2024-01-25T10:50:51;4.90;;;3.53;;
12120;SDS011;6124;59.460;17.908;2024-01-25T10:53:18;4.47;;;3.50;;
12120;SDS011;6124;59.460;17.908;2024-01-25T10:55:46;5.50;;;3.20;;
12120;SDS011;6124;59.460;17.908;2024-01-25T10:58:14;4.97;;;3.33;;
12120;SDS011;6124;59.460;17.908;2024-01-25T11:00:50;4.67;;;3.30;;
12120;SDS011;6124;59.460;17.908;2024-01-25T11:03:18;5.17;;;2.83;;
12120;SDS011;6124;59.460;17.908;2024-01-25T11:05:46;4.60;;;2.53;;
12120;SDS011;6124;59.460;17.908;2024-01-25T11:08:17;4.50;;;3.00;;
12120;SDS011;6124;59.460;17.908;2024-01-25T11:10:48;4.83;;;2.80;;
12120;SDS011;6124;59.460;17.908;2024-01-25T11:13:17;4.30;;;2.90;;
12120;SDS011;6124;59.460;17.908;2024-01-25T11:15:51;3.40;;;2.70;;
12120;SDS011;6124;59.460;17.908;2024-01-25T11:18:19;4.67;;;3.13;;
12120;SDS011;6124;59.460;17.908;2024-01-25T11:20:46;3.20;;;2.50;;
12120;SDS011;6124;59.460;17.908;2024-01-25T11:23:15;5.50;;;2.50;;
12120;SDS011;6124;59.460;17.908;2024-01-25T11:25:44;3.43;;;2.37;;
12120;SDS011;6124;59.460;17.908;2024-01-25T11:28:11;2.40;;;1.97;;
12120;SDS011;6124;59.460;17.908;2024-01-25T11:30:40;4.10;;;2.30;;
12120;SDS011;6124;59.460;17.908;2024-01-25T11:33:09;2.33;;;1.80;;
12120;SDS011;6124;59.460;17.908;2024-01-25T11:35:37;2.20;;;1.67;;
12120;SDS011;6124;59.460;17.908;2024-01-25T11:38:04;4.60;;;1.80;;
12120;SDS011;6124;59.460;17.908;2024-01-25T11:40:32;2.63;;;1.73;;
12120;SDS011;6124;59.460;17.908;2024-01-25T11:43:01;3.10;;;1.50;;
12120;SDS011;6124;59.460;17.908;2024-01-25T11:45:28;3.03;;;1.73;;
12120;SDS011;6124;59.460;17.908;2024-01-25T11:47:56;2.83;;;1.50;;
12120;SDS011;6124;59.460;17.908;2024-01-25T11:50:25;1.70;;;1.23;;
12120;SDS011;6124;59.460;17.908;2024-01-25T11:52:54;3.73;;;1.37;;
12120;SDS011;6124;59.460;17.908;2024-01-25T11:55:21;2.03;;;1.20;;
12120;SDS011;6124;59.460;17.908;2024-01-25T11:57:48;2.03;;;1.50;;
12120;SDS011;6124;59.460;17.908;2024-01-25T12:00:16;2.23;;;1.43;;
12120;SDS011;6124;59.460;17.908;2024-01-25T12:02:45;1.97;;;1.20;;
12120;SDS011;6124;59.460;17.908;2024-01-25T12:05:12;1.60;;;1.37;;
12120;SDS011;6124;59.460;17.908;2024-01-25T12:07:41;3.37;;;1.43;;
12120;SDS011;6124;59.460;17.908;2024-01-25T12:10:10;1.90;;;1.40;;
12120;SDS011;6124;59.460;17.908;2024-01-25T12:12:42;2.17;;;1.43;;
12120;SDS011;6124;59.460;17.908;2024-01-25T12:15:09;1.90;;;1.20;;
12120;SDS011;6124;59.460;17.908;2024-01-25T12:17:37;2.80;;;1.10;;
12120;SDS011;6124;59.460;17.908;2024-01-25T12:20:05;3.53;;;1.17;;
12120;SDS011;6124;59.460;17.908;2024-01-25T12:22:36;1.13;;;0.90;;
12120;SDS011;6124;59.460;17.908;2024-01-25T12:25:07;2.07;;;0.80;;
12120;SDS011;6124;59.460;17.908;2024-01-25T12:27:37;1.50;;;0.97;;
12120;SDS011;6124;59.460;17.908;2024-01-25T12:30:07;1.13;;;1.00;;
12120;SDS011;6124;59.460;17.908;2024-01-25T12:32:34;3.73;;;0.90;;
12120;SDS011;6124;59.460;17.908;2024-01-25T12:35:02;3.10;;;0.90;;
12120;SDS011;6124;59.460;17.908;2024-01-25T12:37:29;3.67;;;1.07;;
12120;SDS011;6124;59.460;17.908;2024-01-25T12:39:57;1.33;;;0.90;;
12120;SDS011;6124;59.460;17.908;2024-01-25T12:42:26;1.27;;;1.00;;
12120;SDS011;6124;59.460;17.908;2024-01-25T12:44:53;1.33;;;0.80;;
12120;SDS011;6124;59.460;17.908;2024-01-25T12:47:21;2.40;;;1.00;;
12120;SDS011;6124;59.460;17.908;2024-01-25T12:49:48;2.03;;;0.97;;
12120;SDS011;6124;59.460;17.908;2024-01-25T12:52:16;1.17;;;1.00;;
12120;SDS011;6124;59.460;17.908;2024-01-25T12:54:43;1.50;;;0.90;;
12120;SDS011;6124;59.460;17.908;2024-01-25T12:57:10;2.90;;;1.07;;
12120;SDS011;6124;59.460;17.908;2024-01-25T12:59:39;1.50;;;0.87;;
12120;SDS011;6124;59.460;17.908;2024-01-25T13:02:07;1.33;;;0.80;;
12120;SDS011;6124;59.460;17.908;2024-01-25T13:04:35;1.53;;;1.07;;
12120;SDS011;6124;59.460;17.908;2024-01-25T13:07:02;2.53;;;1.07;;
12120;SDS011;6124;59.460;17.908;2024-01-25T13:09:29;1.57;;;0.87;;
12120;SDS011;6124;59.460;17.908;2024-01-25T13:11:59;1.17;;;0.80;;
12120;SDS011;6124;59.460;17.908;2024-01-25T13:14:26;1.40;;;0.90;;
12120;SDS011;6124;59.460;17.908;2024-01-25T13:16:55;3.27;;;1.07;;
12120;SDS011;6124;59.460;17.908;2024-01-25T13:19:23;1.47;;;1.00;;
12120;SDS011;6124;59.460;17.908;2024-01-25T13:21:50;1.20;;;1.00;;
12120;SDS011;6124;59.460;17.908;2024-01-25T13:24:17;1.73;;;1.00;;
12120;SDS011;6124;59.460;17.908;2024-01-25T13:26:45;1.30;;;0.70;;
12120;SDS011;6124;59.460;17.908;2024-01-25T13:29:12;1.00;;;0.80;;
12120;SDS011;6124;59.460;17.908;2024-01-25T13:31:40;2.73;;;1.00;;
12120;SDS011;6124;59.460;17.908;2024-01-25T13:34:09;0.90;;;0.73;;
12120;SDS011;6124;59.460;17.908;2024-01-25T13:36:36;1.97;;;1.10;;
12120;SDS011;6124;59.460;17.908;2024-01-25T13:39:04;1.87;;;1.00;;
12120;SDS011;6124;59.460;17.908;2024-01-25T13:41:31;1.60;;;0.93;;
12120;SDS011;6124;59.460;17.908;2024-01-25T13:43:59;3.77;;;1.50;;
12120;SDS011;6124;59.460;17.908;2024-01-25T13:46:26;1.20;;;1.03;;
12120;SDS011;6124;59.460;17.908;2024-01-25T13:48:53;2.73;;;1.00;;
12120;SDS011;6124;59.460;17.908;2024-01-25T13:51:22;3.77;;;1.07;;
12120;SDS011;6124;59.460;17.908;2024-01-25T13:53:50;1.43;;;1.10;;
12120;SDS011;6124;59.460;17.908;2024-01-25T13:56:17;1.87;;;0.90;;
12120;SDS011;6124;59.460;17.908;2024-01-25T13:58:44;1.00;;;0.90;;
12120;SDS011;6124;59.460;17.908;2024-01-25T14:01:12;1.60;;;0.80;;
12120;SDS011;6124;59.460;17.908;2024-01-25T14:03:39;1.67;;;1.00;;
12120;SDS011;6124;59.460;17.908;2024-01-25T14:06:06;1.40;;;1.10;;
12120;SDS011;6124;59.460;17.908;2024-01-25T14:08:36;4.63;;;1.20;;
12120;SDS011;6124;59.460;17.908;2024-01-25T14:11:03;1.43;;;1.10;;
12120;SDS011;6124;59.460;17.908;2024-01-25T14:13:31;1.90;;;1.00;;
12120;SDS011;6124;59.460;17.908;2024-01-25T14:15:59;1.63;;;1.07;;
12120;SDS011;6124;59.460;17.908;2024-01-25T14:18:26;2.30;;;1.30;;
12120;SDS011;6124;59.460;17.908;2024-01-25T14:20:54;1.93;;;1.10;;
12120;SDS011;6124;59.460;17.908;2024-01-25T14:23:22;1.37;;;1.03;;
12120;SDS011;6124;59.460;17.908;2024-01-25T14:25:50;1.37;;;1.00;;
12120;SDS011;6124;59.460;17.908;2024-01-25T14:28:18;2.10;;;1.30;;
12120;SDS011;6124;59.460;17.908;2024-01-25T14:30:45;1.00;;;0.90;;
12120;SDS011;6124;59.460;17.908;2024-01-25T14:33:13;2.40;;;1.23;;
12120;SDS011;6124;59.460;17.908;2024-01-25T14:35:40;1.90;;;1.40;;
12120;SDS011;6124;59.460;17.908;2024-01-25T14:38:08;2.27;;;1.57;;
12120;SDS011;6124;59.460;17.908;2024-01-25T14:40:36;1.30;;;1.10;;
12120;SDS011;6124;59.460;17.908;2024-01-25T14:43:04;2.87;;;1.10;;
12120;SDS011;6124;59.460;17.908;2024-01-25T14:45:32;1.20;;;1.10;;
12120;SDS011;6124;59.460;17.908;2024-01-25T14:48:01;3.70;;;1.50;;
12120;SDS011;6124;59.460;17.908;2024-01-25T14:50:28;1.50;;;1.00;;
12120;SDS011;6124;59.460;17.908;2024-01-25T14:52:57;3.03;;;1.37;;